Terminal Aerodrome Forecast
Issued by NWS

Home | Current Version | Previous Version | Text Only | Print | Product List | Glossary On
Versions: 1 2 3 4 5 6 7 8 9 10 11 12 13 14 15 16 17 18 19 20 21
000
FTUS46 KMTR 271741
TAFOAK
TAF
KOAK 271741Z 2718/2824 27006KT P6SM FEW009 BKN250
     FM271900 27010KT P6SM BKN200
     FM272100 27015KT P6SM SCT015 SCT200
     FM280400 29010KT P6SM FEW020 SCT250
     FM280900 33006KT P6SM FEW015 SCT250
     FM281500 VRB04KT P6SM FEW200=

USA.gov is the U.S. government's official web portal to all federal, state and local government web resources and services.